Time;durP1;ratioP1;P1;durP2;ratioP2;P2;SDS_P1;SDS_P2;PMS_P1;PMS_P2;Temp;Humidity;BMP_temperature;BMP_pressure;BME280_temperature;BME280_humidity;BME280_pressure;Samples;Min_cycle;Max_cycle;Signal;HPM_P1;HPM_P2
2021/03/19 00:01:19;;;;;;;14.13;11.13;;;;;;;3.36;70.05;98925.19;5111647;28;41971;-76
2021/03/19 00:03:46;;;;;;;12.23;9.97;;;;;;;3.37;70.07;98926.88;5110847;28;42071;-76
2021/03/19 00:06:14;;;;;;;12.60;10.43;;;;;;;3.38;69.70;98923.38;5110534;28;39101;-76
2021/03/19 00:08:41;;;;;;;13.67;10.87;;;;;;;3.37;69.61;98919.91;5089578;28;41911;-77
2021/03/19 00:11:09;;;;;;;12.80;9.97;;;;;;;3.33;69.60;98923.53;5089949;28;41936;-77
2021/03/19 00:13:36;;;;;;;10.63;9.13;;;;;;;3.30;69.83;98922.78;5090191;28;42973;-77
2021/03/19 00:16:04;;;;;;;10.90;9.27;;;;;;;3.27;69.86;98918.50;5078469;28;38971;-77
2021/03/19 00:18:31;;;;;;;18.87;13.80;;;;;;;3.23;69.83;98920.34;5111816;27;41614;-77
2021/03/19 00:20:58;;;;;;;12.23;10.27;;;;;;;3.16;70.00;98912.75;5111342;27;42686;-77
2021/03/19 00:23:26;;;;;;;12.50;9.63;;;;;;;3.22;69.96;98917.78;5111222;27;42957;-77
2021/03/19 00:25:53;;;;;;;11.47;10.00;;;;;;;3.19;69.75;98905.66;5110456;28;40323;-77
2021/03/19 00:28:20;;;;;;;11.90;10.13;;;;;;;3.23;69.44;98911.63;5110434;28;42214;-77
2021/03/19 00:30:48;;;;;;;11.47;9.70;;;;;;;3.30;69.53;98918.41;5110278;28;41752;-77
2021/03/19 00:33:16;;;;;;;12.03;9.90;;;;;;;3.32;69.56;98921.81;5073225;28;42185;-77
2021/03/19 00:35:44;;;;;;;12.77;10.63;;;;;;;3.22;69.55;98910.78;5090788;28;39950;-78
2021/03/19 00:38:12;;;;;;;11.60;9.30;;;;;;;3.20;69.89;98912.63;5095799;28;41560;-77
2021/03/19 00:40:41;;;;;;;13.50;10.83;;;;;;;3.15;70.90;98914.50;5110169;28;43350;-77
2021/03/19 00:43:11;;;;;;;12.43;10.80;;;;;;;3.03;71.20;98893.09;5109874;28;42437;-77
2021/03/19 00:45:38;;;;;;;15.73;11.47;;;;;;;2.93;71.02;98876.84;5109439;28;39452;-77
2021/03/19 00:48:06;;;;;;;17.27;13.90;;;;;;;3.07;71.24;98906.06;5089471;28;40728;-77
2021/03/19 00:50:36;;;;;;;15.00;12.23;;;;;;;3.07;71.34;98900.81;5089521;28;43512;-77
2021/03/19 00:53:04;;;;;;;13.37;11.23;;;;;;;3.08;71.21;98899.91;5091264;28;43363;-77
2021/03/19 00:55:32;;;;;;;16.60;14.00;;;;;;;2.94;70.93;98868.09;5110062;28;39862;-78
2021/03/19 00:58:00;;;;;;;14.63;11.00;;;;;;;3.11;71.36;98893.72;5093075;28;40781;-78
2021/03/19 01:00:30;;;;;;;12.83;10.30;;;;;;;3.10;71.12;98890.22;5109836;28;43499;-78
2021/03/19 01:02:57;;;;;;;17.43;13.53;;;;;;;3.10;71.18;98895.47;5109902;28;42120;-78
2021/03/19 01:05:26;;;;;;;13.57;11.57;;;;;;;3.06;71.13;98887.78;5108078;28;39116;-78
2021/03/19 01:07:54;;;;;;;15.77;12.03;;;;;;;3.12;70.63;98896.28;5092603;28;41501;-77
2021/03/19 01:10:24;;;;;;;13.80;11.50;;;;;;;3.02;70.51;98876.56;5109197;28;43645;-79
2021/03/19 01:13:06;;;;;;;14.73;12.27;;;;;;;3.08;70.67;98884.22;5109654;28;42927;-77
2021/03/19 01:15:34;;;;;;;19.57;15.00;;;;;;;3.18;70.43;98892.63;5109580;28;40737;-77
2021/03/19 01:18:02;;;;;;;14.60;11.57;;;;;;;3.21;70.41;98903.81;5110843;27;41351;-77
2021/03/19 01:20:32;;;;;;;16.23;13.20;;;;;;;3.24;70.48;98911.59;5109519;28;43081;-77
2021/03/19 01:22:59;;;;;;;13.97;11.97;;;;;;;3.06;70.85;98878.19;5109677;28;41968;-77
2021/03/19 01:25:28;;;;;;;14.93;12.37;;;;;;;3.25;70.50;98904.59;5092817;28;39098;-77
2021/03/19 01:27:55;;;;;;;15.33;12.33;;;;;;;3.25;71.31;98905.44;5110141;27;41445;-77
2021/03/19 01:30:25;;;;;;;17.90;13.83;;;;;;;3.12;70.78;98890.19;5109512;28;42655;-76
2021/03/19 01:32:53;;;;;;;16.60;13.27;;;;;;;3.21;70.95;98911.69;5092432;28;41518;-77
2021/03/19 01:35:22;;;;;;;13.43;11.43;;;;;;;3.01;70.94;98887.91;5109482;28;38958;-76
2021/03/19 01:37:50;;;;;;;17.60;13.97;;;;;;;3.11;71.36;98901.56;5110178;27;42370;-76
2021/03/19 01:40:19;;;;;;;18.10;15.60;;;;;;;3.13;71.82;98911.06;5109463;28;42676;-77
2021/03/19 01:42:47;;;;;;;17.23;14.13;;;;;;;3.12;71.68;98909.34;5092560;28;41569;-77
2021/03/19 01:45:47;;;;;;;15.47;13.50;;;;;;;3.12;71.50;98898.03;5092295;28;39930;-77
2021/03/19 01:48:51;;;;;;;15.57;13.27;;;;;;;3.17;71.17;98901.38;5109515;28;40319;-76
2021/03/19 01:51:56;;;;;;;19.50;15.10;;;;;;;3.19;70.93;98904.81;5092228;28;41948;-77
2021/03/19 01:55:00;;;;;;;15.70;12.00;;;;;;;3.10;70.87;98895.47;5092518;28;42094;-77
2021/03/19 01:58:04;;;;;;;17.70;15.30;;;;;;;3.02;71.18;98897.47;5114120;27;39795;-77
2021/03/19 02:01:08;;;;;;;18.23;13.83;;;;;;;3.02;71.41;98896.63;5095913;28;40585;-77
2021/03/19 02:04:13;;;;;;;18.97;15.43;;;;;;;3.05;71.42;98896.53;5095047;28;42977;-77
2021/03/19 02:07:17;;;;;;;20.37;16.70;;;;;;;3.07;71.11;98890.34;5095407;28;40958;-77
2021/03/19 02:10:22;;;;;;;21.03;15.77;;;;;;;3.06;71.07;98888.63;5112107;28;41432;-77
2021/03/19 02:13:26;;;;;;;18.17;14.57;;;;;;;3.03;71.40;98886.13;5112566;28;40982;-77
2021/03/19 02:16:31;;;;;;;21.20;16.60;;;;;;;3.00;71.14;98883.59;5112225;28;43436;-77
2021/03/19 02:19:35;;;;;;;16.53;13.00;;;;;;;2.95;71.78;98885.50;5113594;27;41975;-77
2021/03/19 02:22:39;;;;;;;15.33;13.20;;;;;;;2.92;71.66;98880.38;5112923;27;40410;-77
2021/03/19 02:25:43;;;;;;;18.27;14.53;;;;;;;2.93;72.01;98882.09;5095231;28;40709;-77
2021/03/19 02:28:48;;;;;;;15.27;12.57;;;;;;;2.95;71.74;98880.28;5112168;28;43332;-77
2021/03/19 02:31:15;;;;;;;21.30;13.93;;;;;;;3.00;71.55;98883.59;5112536;28;41938;-78
2021/03/19 02:33:50;;;;;;;18.73;14.87;;;;;;;3.03;71.33;98883.50;5112563;28;40131;-78
2021/03/19 02:36:21;;;;;;;19.37;15.47;;;;;;;2.98;71.26;98868.84;5112134;28;40727;-77
2021/03/19 02:38:48;;;;;;;21.03;16.23;;;;;;;3.11;71.12;98885.84;5095337;28;42613;-77
2021/03/19 02:41:16;;;;;;;18.70;15.10;;;;;;;3.14;71.04;98891.84;5095358;28;41246;-77
2021/03/19 02:43:43;;;;;;;17.57;14.87;;;;;;;3.15;70.87;98882.25;5092045;28;40220;-78
2021/03/19 02:46:10;;;;;;;20.37;16.57;;;;;;;3.20;70.93;98885.59;5075116;28;40901;-77
2021/03/19 02:48:38;;;;;;;20.17;16.67;;;;;;;3.21;70.98;98884.69;5110734;28;42731;-77
2021/03/19 02:51:07;;;;;;;18.67;14.20;;;;;;;3.13;70.85;98866.59;5094977;28;42126;-77
2021/03/19 02:53:36;;;;;;;17.87;14.07;;;;;;;3.24;71.03;98876.72;5112260;28;38926;-77
2021/03/19 02:56:06;;;;;;;22.10;16.47;;;;;;;3.17;70.85;98865.59;5094916;28;41626;-77
2021/03/19 02:58:33;;;;;;;20.03;15.13;;;;;;;3.15;71.10;98870.03;5091454;28;41948;-77
2021/03/19 03:01:02;;;;;;;18.83;14.57;;;;;;;3.23;70.96;98878.47;5092470;28;41949;-78
2021/03/19 03:03:29;;;;;;;16.70;14.13;;;;;;;3.27;71.08;98865.28;5091596;28;41657;-78
2021/03/19 03:05:56;;;;;;;21.77;17.07;;;;;;;3.16;71.11;98844.72;5109242;28;40684;-77
2021/03/19 03:08:25;;;;;;;22.53;16.33;;;;;;;3.30;70.99;98875.66;5110733;28;41668;-77
2021/03/19 03:10:54;;;;;;;18.20;14.57;;;;;;;3.33;70.85;98876.44;5110988;28;41199;-77
2021/03/19 03:13:21;;;;;;;18.47;15.50;;;;;;;3.34;70.85;98878.09;5111652;28;39024;-77
2021/03/19 03:15:49;;;;;;;19.80;16.80;;;;;;;3.32;70.78;98864.25;5094304;28;40796;-77
2021/03/19 03:18:17;;;;;;;14.63;12.13;;;;;;;3.38;70.46;98879.72;5094499;28;42760;-77
2021/03/19 03:20:47;;;;;;;16.80;13.57;;;;;;;3.31;70.81;98856.44;5094205;28;41051;-76
2021/03/19 03:23:15;;;;;;;17.40;13.87;;;;;;;3.33;70.57;98875.56;5112138;27;40434;-76
2021/03/19 03:25:43;;;;;;;18.17;14.10;;;;;;;3.37;70.58;98882.41;5110591;28;42402;-76
2021/03/19 03:28:12;;;;;;;16.23;13.27;;;;;;;3.32;70.75;98871.25;5112461;27;42951;-76
2021/03/19 03:30:41;;;;;;;16.30;13.63;;;;;;;3.39;70.76;98891.06;5112669;27;42948;-76
2021/03/19 03:33:09;;;;;;;16.33;12.77;;;;;;;3.40;70.54;98887.53;5110778;28;40010;-76
2021/03/19 03:35:38;;;;;;;17.73;13.73;;;;;;;3.30;70.40;98873.06;5110991;28;41813;-76
2021/03/19 03:38:09;;;;;;;18.20;14.57;;;;;;;3.42;70.46;98896.19;5111048;28;43455;-76
2021/03/19 03:40:41;;;;;;;17.87;14.33;;;;;;;3.42;70.53;98901.44;5111125;28;42420;-76
2021/03/19 03:43:12;;;;;;;20.60;15.73;;;;;;;3.41;70.94;98895.34;5110615;28;40007;-76
2021/03/19 03:45:40;;;;;;;18.60;14.17;;;;;;;3.42;71.05;98893.59;5110754;28;41620;-77
2021/03/19 03:48:08;;;;;;;21.60;16.97;;;;;;;3.41;71.86;98900.56;5110899;28;42786;-78
2021/03/19 03:50:35;;;;;;;22.33;17.97;;;;;;;3.38;72.27;98899.81;5109990;28;42022;-79
2021/03/19 03:53:03;;;;;;;23.87;18.33;;;;;;;3.37;72.57;98892.88;5111966;27;41673;-76
2021/03/19 03:55:30;;;;;;;25.57;18.47;;;;;;;3.34;72.71;98893.00;5110588;28;42113;-78
2021/03/19 03:57:57;;;;;;;24.77;18.47;;;;;;;3.29;73.16;98885.28;5111810;27;43921;-75
2021/03/19 04:00:25;;;;;;;28.47;20.67;;;;;;;3.28;72.96;98880.09;5111866;27;42169;-75
2021/03/19 04:02:53;;;;;;;23.37;18.23;;;;;;;3.37;72.66;98892.88;5109944;28;40481;-76
2021/03/19 04:05:23;;;;;;;28.10;20.87;;;;;;;3.33;72.73;98886.03;5111656;27;41625;-75
2021/03/19 04:07:51;;;;;;;23.50;18.00;;;;;;;3.33;72.89;98884.28;5110784;28;42063;-76
2021/03/19 04:10:19;;;;;;;25.30;18.73;;;;;;;3.38;73.14;98895.44;5098510;27;41129;-75
2021/03/19 04:12:46;;;;;;;27.90;19.93;;;;;;;3.33;73.06;98880.81;5114025;27;39421;-76
2021/03/19 04:15:16;;;;;;;24.43;19.57;;;;;;;3.40;73.31;98892.78;5130626;27;42301;-75
2021/03/19 04:17:45;;;;;;;30.13;22.47;;;;;;;3.39;73.67;98896.28;5130829;27;42067;-76
2021/03/19 04:20:14;;;;;;;30.83;22.53;;;;;;;3.38;74.60;98891.97;5128359;27;43208;-75
2021/03/19 04:22:41;;;;;;;29.23;21.33;;;;;;;3.28;74.25;98882.72;5110322;28;39981;-75
2021/03/19 04:25:10;;;;;;;27.47;20.37;;;;;;;3.40;73.94;98898.00;5110016;28;41750;-75
2021/03/19 04:27:43;;;;;;;26.23;19.23;;;;;;;3.41;74.30;98894.50;5111434;27;42489;-75
2021/03/19 04:30:18;;;;;;;34.57;23.60;;;;;;;3.40;75.01;98892.78;5109665;28;42921;-76
2021/03/19 04:32:46;;;;;;;30.93;21.93;;;;;;;3.34;74.95;98887.75;5093543;28;39129;-76
2021/03/19 04:35:15;;;;;;;34.20;23.53;;;;;;;3.36;75.40;98891.16;5111113;27;42409;-75
2021/03/19 04:37:42;;;;;;;29.50;22.10;;;;;;;3.37;74.97;98898.09;5093038;28;41916;-76
2021/03/19 04:40:11;;;;;;;33.63;23.40;;;;;;;3.39;74.87;98901.53;5108486;28;42377;-76
2021/03/19 04:42:38;;;;;;;30.27;20.90;;;;;;;3.41;75.03;98904.97;5110288;28;40878;-75
2021/03/19 04:45:07;;;;;;;32.00;21.10;;;;;;;3.31;74.55;98887.84;5109661;28;42238;-75
2021/03/19 04:47:35;;;;;;;31.90;22.13;;;;;;;3.33;74.27;98901.75;5110020;28;42755;-78
2021/03/19 04:50:04;;;;;;;29.70;20.87;;;;;;;3.43;74.88;98908.38;5110710;27;42704;-78
2021/03/19 04:52:31;;;;;;;27.23;19.17;;;;;;;3.45;74.36;98923.16;5109886;28;40164;-77
2021/03/19 04:55:01;;;;;;;27.27;18.53;;;;;;;3.46;74.10;98921.38;5110858;27;41744;-76
2021/03/19 04:57:28;;;;;;;30.17;21.40;;;;;;;3.33;74.16;98901.75;5109700;28;42468;-75
2021/03/19 04:59:55;;;;;;;25.10;18.57;;;;;;;3.40;74.84;98922.44;5089341;28;41508;-75
2021/03/19 05:02:31;;;;;;;25.20;17.57;;;;;;;3.40;74.79;98921.56;5089672;28;39942;-76
2021/03/19 05:04:58;;;;;;;25.07;18.53;;;;;;;3.39;74.84;98930.31;5106170;28;40743;-76
2021/03/19 05:07:26;;;;;;;21.20;16.60;;;;;;;3.37;75.29;98932.13;5092722;28;42612;-76
2021/03/19 05:09:53;;;;;;;23.17;18.27;;;;;;;3.28;76.55;98919.34;5109205;28;41191;-76
2021/03/19 05:12:21;;;;;;;22.60;18.70;;;;;;;3.24;76.26;98927.28;5110601;27;40045;-76
2021/03/19 05:14:48;;;;;;;23.27;18.40;;;;;;;3.22;76.27;98930.84;5110813;27;42112;-76
2021/03/19 05:17:16;;;;;;;24.57;19.50;;;;;;;3.17;76.84;98927.53;5109552;28;43549;-76
2021/03/19 05:19:43;;;;;;;25.90;19.67;;;;;;;3.16;77.64;98939.78;5107057;28;42356;-76
2021/03/19 05:22:10;;;;;;;24.03;19.93;;;;;;;3.18;77.21;98944.97;5090908;28;39239;-76
2021/03/19 05:24:38;;;;;;;24.67;20.33;;;;;;;3.21;77.07;98950.94;5088824;28;40780;-76
2021/03/19 05:27:06;;;;;;;27.60;20.73;;;;;;;3.19;77.52;98958.00;5088993;28;42652;-76
2021/03/19 05:29:33;;;;;;;29.80;23.00;;;;;;;3.04;77.71;98937.53;5072034;28;42119;-76
2021/03/19 05:32:01;;;;;;;26.33;21.23;;;;;;;2.89;77.50;98911.84;5092209;28;40192;-76
2021/03/19 05:34:28;;;;;;;22.67;18.13;;;;;;;3.21;77.44;98960.56;5092752;28;40680;-76
2021/03/19 05:36:55;;;;;;;26.07;19.03;;;;;;;3.20;77.74;98969.31;5092365;28;43456;-76
2021/03/19 05:39:22;;;;;;;26.00;19.70;;;;;;;3.22;77.27;98967.50;5109308;28;42293;-77
2021/03/19 05:41:50;;;;;;;20.77;17.57;;;;;;;3.25;77.29;98973.50;5091932;28;39013;-76
2021/03/19 05:44:19;;;;;;;20.50;16.93;;;;;;;3.18;78.02;98977.22;5097425;28;42087;-76
2021/03/19 05:46:48;;;;;;;20.10;15.77;;;;;;;3.14;77.94;98983.44;5112870;28;42620;-76
2021/03/19 05:49:21;;;;;;;19.93;13.67;;;;;;;3.07;78.22;98976.69;5112420;28;42047;-76
2021/03/19 05:51:52;;;;;;;17.33;12.63;;;;;;;3.08;77.99;98983.63;5112695;28;39183;-76
2021/03/19 05:54:24;;;;;;;15.87;13.20;;;;;;;3.00;78.10;98983.00;5111937;28;42175;-76
2021/03/19 05:57:15;;;;;;;14.57;11.87;;;;;;;2.88;78.05;98972.91;5095966;28;43031;-77
2021/03/19 05:59:46;;;;;;;14.70;11.13;;;;;;;2.99;77.97;98986.50;5113815;27;42688;-76
2021/03/19 06:02:20;;;;;;;11.23;9.30;;;;;;;2.98;77.95;98984.78;5111369;28;40657;-76
2021/03/19 06:05:00;;;;;;;21.10;15.03;;;;;;;2.94;78.12;98993.66;5094543;28;40560;-76
2021/03/19 06:07:40;;;;;;;12.77;10.23;;;;;;;2.91;78.13;98992.88;5112033;28;42747;-77
2021/03/19 06:10:33;;;;;;;10.20;8.00;;;;;;;2.92;78.19;98992.84;5092020;28;41350;-76
2021/03/19 06:13:32;;;;;;;11.47;8.90;;;;;;;3.02;77.94;99001.25;5093452;28;39761;-78
2021/03/19 06:16:35;;;;;;;10.30;7.90;;;;;;;3.00;77.96;98996.06;5092199;28;40946;-77
2021/03/19 06:19:05;;;;;;;10.13;7.50;;;;;;;2.99;77.85;99006.56;5098503;27;41708;-74
2021/03/19 06:21:33;;;;;;;11.63;8.20;;;;;;;3.04;77.91;99000.31;5112607;27;42123;-78
2021/03/19 06:24:05;;;;;;;10.43;7.77;;;;;;;3.05;77.71;99002.03;5112573;27;40819;-75
2021/03/19 06:26:36;;;;;;;11.13;8.70;;;;;;;3.00;78.01;99003.91;5112078;28;40621;-74
2021/03/19 06:29:14;;;;;;;10.47;8.67;;;;;;;3.00;77.85;99009.16;5111565;28;42180;-76
2021/03/19 06:31:43;;;;;;;10.17;8.43;;;;;;;3.09;77.42;99016.72;5113020;27;42035;-74
2021/03/19 06:34:14;;;;;;;11.27;9.63;;;;;;;3.12;77.45;99014.03;5111124;28;40423;-75
2021/03/19 06:36:53;;;;;;;11.87;9.57;;;;;;;3.12;77.46;99024.50;5111137;28;42129;-74
2021/03/19 06:39:25;;;;;;;10.13;8.33;;;;;;;3.16;77.04;99025.25;5112837;27;42599;-75
2021/03/19 06:42:08;;;;;;;12.80;9.07;;;;;;;3.21;77.15;99024.19;5112950;27;42650;-75
2021/03/19 06:44:36;;;;;;;12.73;9.67;;;;;;;3.25;76.69;99032.81;5113115;27;39922;-76
2021/03/19 06:47:06;;;;;;;13.30;9.57;;;;;;;3.30;76.86;99022.22;5110050;28;42163;-76
2021/03/19 06:49:48;;;;;;;13.53;9.43;;;;;;;3.28;76.97;99031.88;5111313;28;44693;-75
2021/03/19 06:52:24;;;;;;;12.67;9.77;;;;;;;3.35;76.58;99036.88;5094549;28;41993;-76
2021/03/19 06:54:54;;;;;;;12.00;9.73;;;;;;;3.43;76.46;99040.13;5110878;28;39872;-75
2021/03/19 06:57:22;;;;;;;19.93;13.53;;;;;;;3.46;76.00;99039.19;5110420;28;41643;-76
2021/03/19 06:59:53;;;;;;;11.93;9.60;;;;;;;3.46;76.09;99037.41;5111343;28;41950;-73
2021/03/19 07:02:45;;;;;;;14.17;11.17;;;;;;;3.47;76.01;99041.72;5093867;28;41309;-74
2021/03/19 07:05:33;;;;;;;14.37;11.03;;;;;;;3.53;75.88;99053.78;5111151;28;39342;-74
2021/03/19 07:08:15;;;;;;;14.73;11.70;;;;;;;3.58;75.99;99046.66;5102351;27;41617;-75
2021/03/19 07:10:55;;;;;;;13.30;11.17;;;;;;;3.73;75.33;99059.25;5110417;28;42900;-75
2021/03/19 07:13:41;;;;;;;16.17;12.13;;;;;;;3.89;75.15;99055.25;5111461;27;41938;-74
2021/03/19 07:16:15;;;;;;;17.70;11.70;;;;;;;3.96;74.71;99043.66;5111934;27;41666;-79
2021/03/19 07:18:57;;;;;;;13.83;11.77;;;;;;;4.08;74.52;99046.78;5110310;28;41499;-74
2021/03/19 07:21:47;;;;;;;14.07;11.63;;;;;;;4.27;73.77;99064.47;5111889;27;42790;-76
2021/03/19 07:24:25;;;;;;;13.57;11.43;;;;;;;4.44;72.99;99063.91;5110796;28;40553;-75
2021/03/19 07:27:00;;;;;;;14.80;11.90;;;;;;;4.65;72.65;99067.53;5110444;28;40784;-75
2021/03/19 07:29:40;;;;;;;14.93;11.10;;;;;;;4.90;71.77;99065.75;5094195;28;40568;-76
2021/03/19 07:32:56;;;;;;;13.47;11.17;;;;;;;5.52;70.93;99085.31;5111689;27;42653;-78
2021/03/19 07:35:41;;;;;;;12.13;10.83;;;;;;;5.99;68.95;99084.31;5109368;28;42788;-76
2021/03/19 07:38:36;;;;;;;12.63;10.67;;;;;;;6.17;67.43;99093.25;5111102;28;39947;-79
2021/03/19 07:41:16;;;;;;;12.43;10.10;;;;;;;6.36;66.58;99103.84;5094043;28;40844;-79
2021/03/19 07:44:05;;;;;;;11.50;10.07;;;;;;;6.64;67.12;99107.06;5111793;27;42410;-79
2021/03/19 07:46:42;;;;;;;10.73;9.63;;;;;;;7.03;66.11;99100.97;5110867;28;41073;-78
2021/03/19 07:49:38;;;;;;;12.37;11.00;;;;;;;7.19;65.06;99117.78;5109783;28;40723;-76
2021/03/19 07:52:21;;;;;;;10.93;9.63;;;;;;;7.25;64.64;99122.81;5110264;28;41468;-77
2021/03/19 07:54:54;;;;;;;13.07;10.27;;;;;;;7.08;65.16;99120.06;5109754;28;43159;-77
2021/03/19 07:57:34;;;;;;;11.27;10.07;;;;;;;6.75;65.58;99120.59;5109327;28;42937;-79
2021/03/19 08:00:09;;;;;;;9.53;8.50;;;;;;;6.45;65.80;99085.06;5110321;28;40129;-80
2021/03/19 08:03:01;;;;;;;10.23;9.23;;;;;;;6.50;65.64;99117.31;5110316;28;41518;-77
2021/03/19 08:05:39;;;;;;;9.80;8.80;;;;;;;6.46;66.10;99118.34;5093618;28;41753;-78
2021/03/19 08:08:20;;;;;;;10.00;8.83;;;;;;;6.43;66.17;99116.69;5110328;28;41221;-78
2021/03/19 08:11:07;;;;;;;11.80;8.67;;;;;;;6.25;65.40;99127.13;5109599;28;40753;-75
2021/03/19 08:13:48;;;;;;;10.27;8.47;;;;;;;6.58;66.05;99136.25;5112035;27;42409;-78
2021/03/19 08:16:19;;;;;;;11.70;9.53;;;;;;;6.82;64.81;99119.41;5112034;27;42851;-75
2021/03/19 08:18:51;;;;;;;13.13;9.67;;;;;;;7.33;62.46;99141.75;5119786;28;42903;-77
2021/03/19 08:21:26;;;;;;;12.30;10.43;;;;;;;7.62;61.62;99129.03;5105595;28;39813;-76
2021/03/19 08:24:03;;;;;;;12.20;9.70;;;;;;;9.18;59.91;99154.75;5122823;27;42663;-76
2021/03/19 08:26:39;;;;;;;10.93;9.33;;;;;;;10.72;57.33;99171.81;5124312;28;44055;-78
2021/03/19 08:29:19;;;;;;;11.30;9.83;;;;;;;11.03;53.14;99200.00;5122113;28;43030;-78
2021/03/19 08:31:50;;;;;;;12.43;10.50;;;;;;;10.28;52.95;99206.09;5103209;28;39094;-78
2021/03/19 08:34:28;;;;;;;11.07;9.87;;;;;;;9.56;53.68;99193.25;5110104;28;40730;-77
2021/03/19 08:36:56;;;;;;;12.27;10.13;;;;;;;9.26;55.31;99176.38;5110789;27;42719;-75
2021/03/19 08:39:33;;;;;;;14.30;11.23;;;;;;;9.11;56.61;99178.03;5109568;28;43704;-77
2021/03/19 08:42:04;;;;;;;12.87;11.13;;;;;;;8.98;57.08;99175.16;5093248;28;39072;-75
2021/03/19 08:44:35;;;;;;;16.37;13.07;;;;;;;8.94;57.36;99181.50;5110191;28;41660;-80
2021/03/19 08:47:14;;;;;;;12.83;10.63;;;;;;;9.07;57.41;99179.09;5091050;28;43472;-78
2021/03/19 08:49:45;;;;;;;14.00;11.30;;;;;;;8.87;56.59;99180.13;5109767;28;42271;-77
2021/03/19 08:52:31;;;;;;;14.13;11.10;;;;;;;8.73;56.38;99192.31;5108216;28;40286;-77
2021/03/19 08:55:21;;;;;;;12.80;10.83;;;;;;;8.75;56.82;99201.00;5110902;27;41488;-80
2021/03/19 08:57:51;;;;;;;13.40;10.80;;;;;;;9.26;55.88;99169.31;5108237;28;42672;-79
2021/03/19 09:00:47;;;;;;;14.30;11.50;;;;;;;10.14;54.07;99216.56;5092481;28;41320;-79
2021/03/19 09:03:52;;;;;;;13.97;10.67;;;;;;;10.37;53.19;99216.19;5088646;28;41546;-77
2021/03/19 09:06:23;;;;;;;15.13;11.70;;;;;;;10.42;53.20;99218.56;5092044;28;41788;-76
2021/03/19 09:09:17;;;;;;;13.17;11.57;;;;;;;9.91;52.03;99195.78;5093834;28;42575;-79
2021/03/19 09:12:06;;;;;;;13.43;11.00;;;;;;;9.67;52.58;99230.56;5125169;27;41837;-76
2021/03/19 09:14:41;;;;;;;12.47;10.90;;;;;;;9.46;54.00;99221.13;5094317;28;39755;-79
2021/03/19 09:17:27;;;;;;;12.27;10.97;;;;;;;10.21;51.47;99241.81;5092274;28;41994;-81
2021/03/19 09:20:01;;;;;;;12.67;10.23;;;;;;;11.08;50.96;99239.50;5074486;28;42387;-75
2021/03/19 09:22:46;;;;;;;12.47;10.90;;;;;;;11.39;49.22;99257.94;5093203;28;42285;-76
2021/03/19 09:25:40;;;;;;;11.43;9.23;;;;;;;11.00;48.12;99271.72;5075763;28;39377;-78
2021/03/19 09:28:33;;;;;;;10.77;9.67;;;;;;;12.00;45.55;99282.59;5108140;28;41662;-80
2021/03/19 09:31:10;;;;;;;11.10;9.27;;;;;;;14.08;43.54;99291.94;5098254;28;43561;-80
2021/03/19 09:34:01;;;;;;;9.17;8.17;;;;;;;15.85;40.24;99303.78;5112090;28;41297;-78
2021/03/19 09:37:08;;;;;;;9.57;8.57;;;;;;;17.36;34.87;99344.25;5111869;28;39737;-77
2021/03/19 09:40:00;;;;;;;9.57;8.63;;;;;;;18.34;32.57;99349.38;5112809;28;42354;-78
2021/03/19 09:42:53;;;;;;;9.83;8.90;;;;;;;18.29;32.25;99353.31;5111652;28;42481;-79
2021/03/19 09:45:46;;;;;;;9.50;8.50;;;;;;;17.57;33.21;99352.31;5110006;28;42777;-79
2021/03/19 09:48:32;;;;;;;9.20;8.40;;;;;;;17.72;31.95;99342.19;5111765;27;39810;-79
2021/03/19 09:51:27;;;;;;;8.20;7.40;;;;;;;18.68;31.90;99358.88;5095157;28;40902;-79
2021/03/19 09:53:55;;;;;;;7.57;6.87;;;;;;;19.19;31.53;99349.84;5113105;27;43322;-78
2021/03/19 09:56:31;;;;;;;9.03;8.23;;;;;;;20.03;29.71;99359.09;5112723;27;42308;-79
2021/03/19 09:59:08;;;;;;;8.13;7.33;;;;;;;19.55;30.41;99345.69;5112882;28;40869;-79
2021/03/19 10:01:42;;;;;;;8.17;7.03;;;;;;;18.89;29.91;99322.09;5112539;28;42409;-76
2021/03/19 10:04:12;;;;;;;8.80;8.00;;;;;;;18.58;30.59;99341.91;5095758;28;41872;-82
2021/03/19 10:06:44;;;;;;;7.93;6.83;;;;;;;18.08;31.94;99328.31;5113740;27;42388;-80
2021/03/19 10:09:18;;;;;;;7.23;6.53;;;;;;;18.03;31.17;99330.56;5144871;27;40734;-78
2021/03/19 10:12:13;;;;;;;7.10;6.40;;;;;;;19.60;29.81;99349.66;5128130;27;41802;-78
2021/03/19 10:14:43;;;;;;;8.00;7.30;;;;;;;20.39;29.41;99350.31;5091948;28;42229;-78
2021/03/19 10:17:25;;;;;;;9.27;8.37;;;;;;;20.86;29.21;99342.19;5110482;27;42062;-80
2021/03/19 10:19:56;;;;;;;8.60;7.80;;;;;;;19.65;29.17;99343.88;5110447;28;39795;-77
2021/03/19 10:22:42;;;;;;;8.53;7.73;;;;;;;17.32;32.03;99336.56;5109903;28;40980;-78
2021/03/19 10:25:14;;;;;;;9.10;8.20;;;;;;;15.20;34.41;99325.63;5092286;28;41922;-78
2021/03/19 10:27:46;;;;;;;8.87;7.90;;;;;;;13.63;37.47;99302.97;5110921;27;42674;-77
2021/03/19 10:30:21;;;;;;;7.90;7.17;;;;;;;12.70;39.68;99283.50;5094931;28;39089;-77
2021/03/19 10:32:48;;;;;;;7.83;7.03;;;;;;;12.10;40.75;99283.75;5095050;28;41129;-76
2021/03/19 10:35:19;;;;;;;8.10;7.30;;;;;;;11.67;42.24;99275.72;5094029;28;42432;-77
2021/03/19 10:37:58;;;;;;;8.37;7.23;;;;;;;11.58;42.89;99265.69;5111947;28;42304;-77
2021/03/19 10:40:35;;;;;;;7.90;7.10;;;;;;;11.27;42.93;99271.94;5112054;28;40374;-74
2021/03/19 10:43:11;;;;;;;8.73;7.27;;;;;;;11.00;43.50;99276.22;5111850;28;41550;-76
2021/03/19 10:45:46;;;;;;;9.90;7.30;;;;;;;10.92;43.92;99281.94;5111921;28;42368;-77
2021/03/19 10:48:21;;;;;;;8.13;7.33;;;;;;;10.54;44.41;99285.88;5094279;28;42113;-77
2021/03/19 10:51:02;;;;;;;8.70;7.50;;;;;;;10.41;45.39;99281.25;5094902;28;40788;-75
2021/03/19 10:53:50;;;;;;;12.07;9.13;;;;;;;10.17;45.09;99293.16;5112561;27;41836;-77
2021/03/19 10:56:19;;;;;;;9.43;7.03;;;;;;;9.44;45.59;99289.06;5112980;27;42291;-77
2021/03/19 10:58:51;;;;;;;8.13;7.17;;;;;;;9.29;45.92;99288.06;5111275;28;42104;-77
2021/03/19 11:01:39;;;;;;;8.30;7.00;;;;;;;9.39;46.40;99282.31;5111768;28;39141;-77
2021/03/19 11:04:25;;;;;;;8.10;7.17;;;;;;;9.30;46.45;99283.63;5112617;27;42449;-78
2021/03/19 11:06:54;;;;;;;8.53;6.83;;;;;;;8.76;47.32;99290.72;5111772;28;41503;-73
2021/03/19 11:09:23;;;;;;;12.77;9.87;;;;;;;8.15;49.90;99288.28;5112344;27;41937;-76
2021/03/19 11:11:52;;;;;;;8.90;6.37;;;;;;;7.72;49.86;99278.78;5110786;28;39090;-76
2021/03/19 11:14:25;;;;;;;7.03;6.23;;;;;;;7.49;51.30;99263.13;5110766;28;41224;-76
2021/03/19 11:16:55;;;;;;;7.73;6.43;;;;;;;7.33;51.66;99257.66;5094170;28;41795;-76
2021/03/19 11:19:24;;;;;;;8.63;6.47;;;;;;;7.46;51.80;99276.44;5111662;27;43517;-75
2021/03/19 11:22:02;;;;;;;7.63;6.30;;;;;;;7.45;51.99;99283.47;5110529;28;40378;-74
2021/03/19 11:24:32;;;;;;;8.07;6.87;;;;;;;7.54;51.90;99277.81;5112334;27;42472;-75
2021/03/19 11:27:18;;;;;;;8.30;7.10;;;;;;;7.78;52.00;99285.59;5110247;28;42644;-75
2021/03/19 11:29:46;;;;;;;8.50;7.40;;;;;;;7.91;51.30;99284.94;5110577;28;42457;-75
2021/03/19 11:32:34;;;;;;;8.60;6.90;;;;;;;8.22;50.64;99302.91;5110910;28;39669;-79
2021/03/19 11:35:18;;;;;;;7.37;6.20;;;;;;;8.47;50.85;99302.66;5110310;28;42101;-75
2021/03/19 11:37:46;;;;;;;9.60;7.67;;;;;;;8.53;50.68;99296.25;5111732;27;42794;-75
2021/03/19 11:40:31;;;;;;;8.67;6.83;;;;;;;8.89;50.70;99305.03;5111522;27;42592;-76
2021/03/19 11:43:00;;;;;;;8.70;6.63;;;;;;;9.19;48.58;99322.94;5111898;27;40588;-77
2021/03/19 11:45:30;;;;;;;7.90;6.17;;;;;;;9.19;48.41;99325.59;5111508;27;41639;-77
2021/03/19 11:48:28;;;;;;;9.03;7.27;;;;;;;9.25;48.41;99333.22;5110550;28;42618;-75
2021/03/19 11:51:08;;;;;;;7.07;6.00;;;;;;;9.33;47.30;99331.06;5108838;27;42199;-78
2021/03/19 11:53:35;;;;;;;10.10;8.10;;;;;;;9.66;46.96;99342.56;5093841;28;38841;-75
2021/03/19 11:56:03;;;;;;;7.50;6.07;;;;;;;10.00;46.48;99347.00;5111208;27;41525;-76
2021/03/19 11:58:33;;;;;;;6.13;5.53;;;;;;;10.35;46.67;99333.69;5109937;28;42732;-75
2021/03/19 12:01:03;;;;;;;8.70;6.10;;;;;;;11.08;44.38;99361.44;5109476;28;42178;-77
2021/03/19 12:03:34;;;;;;;5.63;4.90;;;;;;;11.83;42.75;99364.13;5111325;27;39971;-78
2021/03/19 12:06:03;;;;;;;5.47;4.93;;;;;;;11.82;41.30;99369.50;5110488;28;42360;-76
2021/03/19 12:08:31;;;;;;;5.63;4.80;;;;;;;11.53;42.45;99363.22;5109316;28;43638;-74